Thunder radar more information blitzortung!


Löydät sääaseman tiedot myös:

European Weather Network

Finland Weather Exchange

Weather Underground

AWEKAS



Weather Underground säähistoriasivu

Päivittäin yhteenveto Tou 15, 2017 Yksiköt:  Metriset    Englantilaiset   Molemmat
« Edellinen Päivä
Seuraava Päivä »
Päivittäin Viikoittain Kuukausittain Vuosittain Mukautettu
  Korkea: Matala: Keskiarvo:
Lämpötila: -17.8 °C -17.2 °C -15.1 °C
Kastepiste: -17.8 °C -18.9 °C -17.9 °C
Kosteus: Humidity % 50 % 70 %
Tuulen nopeus: 0 km/h 0 km/h 2.1 km/h
Tuulenpuuska: 0 km/h - -
Tuuli:- - ESE
Ilmanpaine: 0 hPa 34554.1 hPa -
Sade: 0 mm    
Historical Graphs
 
 
Taulukkotiedot Tou 15, 2017
Aika Lämpötila Kastepiste Ilmanpaine Tuuli Tuulen nopeus Tuulenpuuska Kosteus Sademäärä (tunneittain)
-17.8 °C -17.8 °C 0 hPa Calm     Humidity % 0 mm
00:00 -16.7 °C -17.6 °C 34554.1 hPa Calm   2.6 km/h 89 % 0 mm
00:15 -16.7 °C -17.6 °C 34554.1 hPa Calm   7.7 km/h 89 % 0 mm
00:30 -16.7 °C -17.6 °C 34567.7 hPa Calm   7.7 km/h 89 % 0 mm
00:45 -16.8 °C -17.7 °C 34567.7 hPa North 2.6 km/h 10.3 km/h 89 % 0 mm
01:00 -16.7 °C -17.6 °C 34567.7 hPa Calm   5.1 km/h 90 % 0 mm
01:15 -16.7 °C -17.5 °C 34567.7 hPa Calm   7.7 km/h 90 % 0 mm
01:30 -16.7 °C -17.6 °C 34567.7 hPa NNW 2.6 km/h 10.3 km/h 90 % 0 mm
01:45 -16.7 °C -17.6 °C 34567.7 hPa Calm   7.7 km/h 90 % 0 mm
02:00 -16.7 °C -17.6 °C 34577.8 hPa Calm   5.1 km/h 90 % 0 mm
02:15 -16.7 °C -17.5 °C 34577.8 hPa Calm   7.7 km/h 90 % 0 mm
02:30 -16.7 °C -17.6 °C 34577.8 hPa NW 2.6 km/h 10.3 km/h 90 % 0 mm
02:45 -16.8 °C -17.6 °C 34577.8 hPa North 2.6 km/h 12.9 km/h 90 % 0 mm
03:00 -16.9 °C -17.6 °C 34577.8 hPa North 2.6 km/h 18.2 km/h 91 % 0 mm
03:15 -16.9 °C -17.6 °C 34591.4 hPa Calm   5.1 km/h 92 % 0 mm
03:30 -16.9 °C -17.5 °C 34591.4 hPa Calm   5.1 km/h 92 % 0 mm
03:45 -16.9 °C -17.5 °C 34591.4 hPa Calm   7.7 km/h 92 % 0 mm
04:00 -16.9 °C -17.5 °C 34591.4 hPa Calm   5.1 km/h 92 % 0 mm
04:15 -16.9 °C -17.5 °C 34601.5 hPa Calm   10.3 km/h 92 % 0 mm
04:30 -16.8 °C -17.6 °C 34601.5 hPa North 2.6 km/h 23.3 km/h 91 % 0 mm
04:45 -16.8 °C -17.6 °C 34601.5 hPa North 2.6 km/h 12.9 km/h 91 % 0 mm
05:00 -16.8 °C -17.6 °C 34601.5 hPa Calm   7.7 km/h 90 % 0 mm
05:15 -16.9 °C -17.8 °C 34611.7 hPa NNE 5.1 km/h 10.3 km/h 89 % 0 mm
05:30 -16.9 °C -17.8 °C 34611.7 hPa Calm   7.7 km/h 89 % 0 mm
05:45 -17 °C -18 °C 34625.2 hPa North 2.6 km/h 10.3 km/h 88 % 0 mm
06:00 -17.1 °C -18.1 °C 34625.2 hPa Calm   5.1 km/h 87 % 0 mm
06:15 -17.1 °C -18.2 °C 34635.4 hPa Calm   2.6 km/h 87 % 0 mm
06:30 -17.1 °C -18.2 °C 34635.4 hPa Calm   12.9 km/h 87 % 0 mm
06:45 -17.2 °C -18.2 °C 34635.4 hPa Calm   5.1 km/h 87 % 0 mm
07:00 -17.1 °C -18.3 °C 34635.4 hPa ENE 2.6 km/h 7.7 km/h 86 % 0 mm
07:15 -17.1 °C -18.4 °C 34645.6 hPa North 5.1 km/h 12.9 km/h 85 % 0 mm
07:30 -17.1 °C -18.3 °C 34645.6 hPa Calm   5.1 km/h 86 % 0 mm
07:45 -17.1 °C -18.4 °C 34645.6 hPa NNE 5.1 km/h 12.9 km/h 84 % 0 mm
08:00 -16.9 °C -18.3 °C 34659.1 hPa NNE 2.6 km/h 10.3 km/h 83 % 0 mm
08:15 -16.7 °C -18.3 °C 34659.1 hPa Calm   5.1 km/h 81 % 0 mm
08:30 -16.6 °C -18.3 °C 34659.1 hPa Calm   7.7 km/h 80 % 0 mm
08:45 -16.4 °C -18.2 °C 34659.1 hPa Calm   10.3 km/h 80 % 0 mm
09:00 -16.4 °C -18.3 °C 34669.3 hPa East 2.6 km/h 10.3 km/h 79 % 0 mm
09:15 -16.5 °C -18.2 °C 34669.3 hPa NNW 2.6 km/h 10.3 km/h 80 % 0 mm
09:30 -16.6 °C -18.4 °C 34682.8 hPa North 7.7 km/h 18.2 km/h 78 % 0 mm
09:45 -16.3 °C -18.2 °C 34682.8 hPa Calm   7.7 km/h 78 % 0 mm
10:00 -16.2 °C -18.2 °C 34682.8 hPa Calm   7.7 km/h 77 % 0 mm
10:15 -15.6 °C -18 °C 34682.8 hPa NE 2.6 km/h 10.3 km/h 73 % 0 mm
10:30 -15.3 °C -17.9 °C 34693 hPa NNE 2.6 km/h 15.6 km/h 72 % 0 mm
10:45 -14.9 °C -17.7 °C 34693 hPa North 5.1 km/h 15.6 km/h 70 % 0 mm
11:00 -14.4 °C -17.8 °C 34693 hPa NNE 2.6 km/h 12.9 km/h 65 % 0 mm
11:15 -14.3 °C -17.8 °C 34693 hPa NNE 2.6 km/h 12.9 km/h 64 % 0 mm
11:30 -14.3 °C -17.9 °C 34693 hPa North 5.1 km/h 12.9 km/h 63 % 0 mm
11:45 -14 °C -17.9 °C 34703.1 hPa North 5.1 km/h 12.9 km/h 61 % 0 mm
12:00 -14.3 °C -18.2 °C 34703.1 hPa North 7.7 km/h 25.9 km/h 61 % 0 mm
12:15 -14.1 °C -18.1 °C 34716.7 hPa North 7.7 km/h 18.2 km/h 60 % 0 mm
12:30 -13.9 °C -17.9 °C 34703.1 hPa NNE 5.1 km/h 10.3 km/h 60 % 0 mm
12:45 -13.5 °C -17.8 °C 34703.1 hPa NNE 5.1 km/h 12.9 km/h 58 % 0 mm
13:00 -13.3 °C -17.8 °C 34703.1 hPa North 5.1 km/h 18.2 km/h 57 % 0 mm
13:15 -13.2 °C -17.8 °C 34703.1 hPa North 5.1 km/h 20.8 km/h 56 % 0 mm
13:30 -13.4 °C -17.9 °C 34703.1 hPa North 5.1 km/h 23.3 km/h 56 % 0 mm
13:45 -13.2 °C -17.9 °C 34716.7 hPa NNW 5.1 km/h 12.9 km/h 55 % 0 mm
14:00 -12.9 °C -17.8 °C 34716.7 hPa North 5.1 km/h 15.6 km/h 54 % 0 mm
14:15 -12.8 °C -17.8 °C 34716.7 hPa North 5.1 km/h 23.3 km/h 53 % 0 mm
14:30 -12.8 °C -18.1 °C 34716.7 hPa North 7.7 km/h 28.5 km/h 51 % 0 mm
14:45 -12.5 °C -17.4 °C 34716.7 hPa NNE 5.1 km/h 12.9 km/h 54 % 0 mm
15:00 -12.5 °C -17.8 °C 34726.8 hPa North 5.1 km/h 18.2 km/h 51 % 0 mm
15:15 -12.6 °C -17.5 °C 34726.8 hPa North 5.1 km/h 10.3 km/h 54 % 0 mm
15:30 -12.4 °C -17.9 °C 34726.8 hPa NNE 5.1 km/h 12.9 km/h 50 % 0 mm
15:45 -12.3 °C -17.6 °C 34726.8 hPa NE 5.1 km/h 10.3 km/h 52 % 0 mm
16:00 -12.2 °C -17.4 °C 34740.4 hPa NE 2.6 km/h 10.3 km/h 52 % 0 mm
16:15 -12.2 °C -17.6 °C 34740.4 hPa NNE 2.6 km/h 12.9 km/h 51 % 0 mm
16:30 -12.1 °C -17.4 °C 34740.4 hPa NE 2.6 km/h 10.3 km/h 52 % 0 mm
16:45 -12.1 °C -17.2 °C 34750.5 hPa NE 5.1 km/h 10.3 km/h 53 % 0 mm
17:00 -12.2 °C -17.6 °C 34750.5 hPa NNE 2.6 km/h 12.9 km/h 51 % 0 mm
17:15 -12.2 °C -17.4 °C 34750.5 hPa NNE 2.6 km/h 12.9 km/h 52 % 0 mm
17:30 -12.2 °C -17.6 °C 34760.7 hPa NNE 2.6 km/h 15.6 km/h 51 % 0 mm
17:45 -12.2 °C -17.8 °C 34760.7 hPa NNE 2.6 km/h 10.3 km/h 50 % 0 mm
18:00 -12.3 °C -17.4 °C 34760.7 hPa NE 2.6 km/h 10.3 km/h 53 % 0 mm
18:15 -12.3 °C -17.7 °C 34760.7 hPa NE 2.6 km/h 10.3 km/h 51 % 0 mm
18:30 -12.5 °C -17.8 °C 34774.2 hPa NNE 2.6 km/h 10.3 km/h 51 % 0 mm
18:45 -12.6 °C -17.8 °C 34774.2 hPa Calm   10.3 km/h 52 % 0 mm
19:00 -12.7 °C -17.9 °C 34774.2 hPa NNE 2.6 km/h 10.3 km/h 52 % 0 mm
19:15 -12.9 °C -17.7 °C 34784.4 hPa NNE 2.6 km/h 10.3 km/h 55 % 0 mm
19:30 -13.1 °C -17.7 °C 34784.4 hPa Calm   7.7 km/h 56 % 0 mm
19:45 -13.2 °C -18.2 °C 34784.4 hPa Calm   7.7 km/h 53 % 0 mm
20:00 -13.4 °C -18 °C 34797.9 hPa Calm   5.1 km/h 56 % 0 mm
20:15 -13.6 °C -18 °C 34797.9 hPa Calm   5.1 km/h 57 % 0 mm
20:30 -13.8 °C -17.9 °C 34808.1 hPa Calm   2.6 km/h 59 % 0 mm
20:45 -13.9 °C -17.8 °C 34808.1 hPa Calm   2.6 km/h 61 % 0 mm
21:00 -14.2 °C -17.7 °C 34818.2 hPa Calm   5.1 km/h 64 % 0 mm
21:15 -14.3 °C -17.9 °C 34818.2 hPa Calm   2.6 km/h 63 % 0 mm
21:30 -14.5 °C -17.8 °C 34831.8 hPa Calm     65 % 0 mm
21:45 -14.7 °C -18.1 °C 34831.8 hPa Calm   5.1 km/h 65 % 0 mm
22:00 -14.9 °C -18.2 °C 34841.9 hPa Calm     66 % 0 mm
22:15 -15.3 °C -18.3 °C 34841.9 hPa Calm   10.3 km/h 68 % 0 mm
22:30 -15.7 °C -18.5 °C 34852.1 hPa Calm     70 % 0 mm
22:45 -16.1 °C -18.6 °C 34865.6 hPa Calm     73 % 0 mm
23:00 -16.3 °C -18.7 °C 34865.6 hPa Calm     74 % 0 mm
23:15 -16.5 °C -18.7 °C 34875.8 hPa Calm     75 % 0 mm
23:30 -16.7 °C -18.8 °C 34875.8 hPa Calm     76 % 0 mm
23:45 -16.9 °C -18.9 °C 34875.8 hPa Calm     77 % 0 mm
Esan sääasema
Terveisin Weather Underground - 2.75 mb

Alkuperäinen skripti  Jim McMurry - jmcmurry@mwt.net Sovitettu myös templatelle  Wim van der Kuil - Leuven-Template.eu

Laitteet joita käytämme:

Sääasema
Davis VP2

Sääasemaohjelma
Cumulus

Sääaseman tietokone
Asus EeePC

Palveluntarjoaja
Suncomet

Davis VP2

Cumulus

Asus EeePC

Suncomet